sensor_id;sensor_type;location;lat;lon;timestamp;P1;durP1;ratioP1;P2;durP2;ratioP2
54743;SDS011;40639;53.170;6.728;2023-02-15T00:01:49;152.10;;;30.98;;
54743;SDS011;40639;53.170;6.728;2023-02-15T00:04:17;274.45;;;41.90;;
54743;SDS011;40639;53.170;6.728;2023-02-15T00:06:43;246.38;;;39.22;;
54743;SDS011;40639;53.170;6.728;2023-02-15T00:09:09;86.28;;;28.65;;
54743;SDS011;40639;53.170;6.728;2023-02-15T00:11:36;350.55;;;45.00;;
54743;SDS011;40639;53.170;6.728;2023-02-15T00:14:26;552.08;;;59.22;;
54743;SDS011;40639;53.170;6.728;2023-02-15T00:16:51;379.27;;;45.35;;
54743;SDS011;40639;53.170;6.728;2023-02-15T00:19:19;352.38;;;42.10;;
54743;SDS011;40639;53.170;6.728;2023-02-15T00:21:46;320.67;;;38.00;;
54743;SDS011;40639;53.170;6.728;2023-02-15T00:24:13;436.40;;;48.03;;
54743;SDS011;40639;53.170;6.728;2023-02-15T00:26:39;187.27;;;33.20;;
54743;SDS011;40639;53.170;6.728;2023-02-15T00:29:06;169.98;;;31.83;;
54743;SDS011;40639;53.170;6.728;2023-02-15T00:31:32;235.77;;;31.35;;
54743;SDS011;40639;53.170;6.728;2023-02-15T00:34:06;232.43;;;31.10;;
54743;SDS011;40639;53.170;6.728;2023-02-15T00:36:32;240.48;;;28.92;;
54743;SDS011;40639;53.170;6.728;2023-02-15T00:38:58;105.10;;;25.10;;
54743;SDS011;40639;53.170;6.728;2023-02-15T00:41:24;185.15;;;28.92;;
54743;SDS011;40639;53.170;6.728;2023-02-15T00:43:51;118.65;;;23.30;;
54743;SDS011;40639;53.170;6.728;2023-02-15T00:46:17;252.98;;;29.63;;
54743;SDS011;40639;53.170;6.728;2023-02-15T00:48:43;93.47;;;22.48;;
54743;SDS011;40639;53.170;6.728;2023-02-15T00:51:09;83.82;;;21.73;;
54743;SDS011;40639;53.170;6.728;2023-02-15T00:53:35;35.90;;;19.02;;
54743;SDS011;40639;53.170;6.728;2023-02-15T00:56:01;23.65;;;18.58;;
54743;SDS011;40639;53.170;6.728;2023-02-15T00:58:27;24.67;;;18.88;;
54743;SDS011;40639;53.170;6.728;2023-02-15T01:00:53;28.55;;;19.58;;
54743;SDS011;40639;53.170;6.728;2023-02-15T01:03:20;28.67;;;20.23;;
54743;SDS011;40639;53.170;6.728;2023-02-15T01:05:47;30.33;;;19.83;;
54743;SDS011;40639;53.170;6.728;2023-02-15T01:08:13;29.95;;;20.90;;
54743;SDS011;40639;53.170;6.728;2023-02-15T01:10:39;29.50;;;21.27;;
54743;SDS011;40639;53.170;6.728;2023-02-15T01:13:06;31.63;;;22.10;;
54743;SDS011;40639;53.170;6.728;2023-02-15T01:15:35;31.10;;;21.38;;
54743;SDS011;40639;53.170;6.728;2023-02-15T01:18:01;37.90;;;24.40;;
54743;SDS011;40639;53.170;6.728;2023-02-15T01:20:28;32.78;;;21.45;;
54743;SDS011;40639;53.170;6.728;2023-02-15T01:22:54;32.50;;;22.02;;
54743;SDS011;40639;53.170;6.728;2023-02-15T01:25:21;33.05;;;20.70;;
54743;SDS011;40639;53.170;6.728;2023-02-15T01:27:47;32.00;;;22.10;;
54743;SDS011;40639;53.170;6.728;2023-02-15T01:30:14;26.92;;;19.25;;
54743;SDS011;40639;53.170;6.728;2023-02-15T01:32:41;28.85;;;20.38;;
54743;SDS011;40639;53.170;6.728;2023-02-15T01:35:07;27.50;;;18.40;;
54743;SDS011;40639;53.170;6.728;2023-02-15T01:37:33;27.00;;;17.80;;
54743;SDS011;40639;53.170;6.728;2023-02-15T01:40:00;25.35;;;18.95;;
54743;SDS011;40639;53.170;6.728;2023-02-15T01:42:27;25.98;;;18.30;;
54743;SDS011;40639;53.170;6.728;2023-02-15T01:44:54;26.17;;;18.08;;
54743;SDS011;40639;53.170;6.728;2023-02-15T01:55:40;23.45;;;16.20;;
54743;SDS011;40639;53.170;6.728;2023-02-15T01:58:07;25.42;;;18.70;;
54743;SDS011;40639;53.170;6.728;2023-02-15T02:00:33;26.33;;;17.63;;
54743;SDS011;40639;53.170;6.728;2023-02-15T02:03:00;26.00;;;19.10;;
54743;SDS011;40639;53.170;6.728;2023-02-15T02:05:27;26.10;;;18.77;;
54743;SDS011;40639;53.170;6.728;2023-02-15T02:07:54;31.40;;;21.65;;
54743;SDS011;40639;53.170;6.728;2023-02-15T02:10:22;31.23;;;20.33;;
54743;SDS011;40639;53.170;6.728;2023-02-15T02:12:49;27.60;;;20.00;;
54743;SDS011;40639;53.170;6.728;2023-02-15T02:15:16;32.15;;;20.42;;
54743;SDS011;40639;53.170;6.728;2023-02-15T02:17:47;27.40;;;19.73;;
54743;SDS011;40639;53.170;6.728;2023-02-15T02:27:58;81.50;;;22.73;;
54743;SDS011;40639;53.170;6.728;2023-02-15T02:30:33;46.47;;;20.48;;
54743;SDS011;40639;53.170;6.728;2023-02-15T02:33:16;41.35;;;20.83;;
54743;SDS011;40639;53.170;6.728;2023-02-15T02:38:42;83.28;;;23.02;;
54743;SDS011;40639;53.170;6.728;2023-02-15T02:46:04;118.50;;;23.20;;
54743;SDS011;40639;53.170;6.728;2023-02-15T02:48:32;248.20;;;30.25;;
54743;SDS011;40639;53.170;6.728;2023-02-15T02:50:58;214.90;;;26.25;;
54743;SDS011;40639;53.170;6.728;2023-02-15T02:53:25;202.35;;;26.65;;
54743;SDS011;40639;53.170;6.728;2023-02-15T02:55:59;267.52;;;28.77;;
54743;SDS011;40639;53.170;6.728;2023-02-15T03:01:09;199.60;;;26.00;;
54743;SDS011;40639;53.170;6.728;2023-02-15T03:03:42;207.50;;;25.92;;
54743;SDS011;40639;53.170;6.728;2023-02-15T03:06:11;122.13;;;20.13;;
54743;SDS011;40639;53.170;6.728;2023-02-15T03:08:43;143.95;;;22.02;;
54743;SDS011;40639;53.170;6.728;2023-02-15T03:11:11;100.93;;;19.52;;
54743;SDS011;40639;53.170;6.728;2023-02-15T03:13:37;73.57;;;18.67;;
54743;SDS011;40639;53.170;6.728;2023-02-15T03:16:04;63.75;;;18.98;;
54743;SDS011;40639;53.170;6.728;2023-02-15T03:18:58;39.50;;;17.30;;
54743;SDS011;40639;53.170;6.728;2023-02-15T03:21:47;40.85;;;16.80;;
54743;SDS011;40639;53.170;6.728;2023-02-15T03:24:30;28.40;;;16.67;;
54743;SDS011;40639;53.170;6.728;2023-02-15T03:26:56;67.97;;;19.33;;
54743;SDS011;40639;53.170;6.728;2023-02-15T03:29:24;54.35;;;18.58;;
54743;SDS011;40639;53.170;6.728;2023-02-15T03:31:53;29.42;;;16.50;;
54743;SDS011;40639;53.170;6.728;2023-02-15T03:34:21;25.90;;;15.63;;
54743;SDS011;40639;53.170;6.728;2023-02-15T03:36:50;29.23;;;16.92;;
54743;SDS011;40639;53.170;6.728;2023-02-15T03:44:35;72.93;;;19.35;;
54743;SDS011;40639;53.170;6.728;2023-02-15T03:47:05;26.48;;;17.50;;
54743;SDS011;40639;53.170;6.728;2023-02-15T03:49:44;26.90;;;16.70;;
54743;SDS011;40639;53.170;6.728;2023-02-15T03:52:12;23.08;;;16.75;;
54743;SDS011;40639;53.170;6.728;2023-02-15T03:54:40;22.23;;;16.30;;
54743;SDS011;40639;53.170;6.728;2023-02-15T03:57:16;22.67;;;16.92;;
54743;SDS011;40639;53.170;6.728;2023-02-15T04:00:03;22.63;;;16.83;;
54743;SDS011;40639;53.170;6.728;2023-02-15T04:02:55;23.08;;;16.80;;
54743;SDS011;40639;53.170;6.728;2023-02-15T04:05:25;25.40;;;18.42;;
54743;SDS011;40639;53.170;6.728;2023-02-15T04:07:51;25.33;;;18.85;;
54743;SDS011;40639;53.170;6.728;2023-02-15T04:10:17;26.42;;;18.67;;
54743;SDS011;40639;53.170;6.728;2023-02-15T04:13:02;26.23;;;18.92;;
54743;SDS011;40639;53.170;6.728;2023-02-15T04:15:28;44.63;;;18.55;;
54743;SDS011;40639;53.170;6.728;2023-02-15T04:18:13;34.05;;;18.55;;
54743;SDS011;40639;53.170;6.728;2023-02-15T04:20:39;79.35;;;22.08;;
54743;SDS011;40639;53.170;6.728;2023-02-15T04:23:27;51.38;;;19.75;;
54743;SDS011;40639;53.170;6.728;2023-02-15T04:26:12;89.60;;;22.23;;
54743;SDS011;40639;53.170;6.728;2023-02-15T04:28:38;62.78;;;21.00;;
54743;SDS011;40639;53.170;6.728;2023-02-15T04:31:04;67.75;;;20.77;;
54743;SDS011;40639;53.170;6.728;2023-02-15T04:33:31;42.38;;;19.15;;
54743;SDS011;40639;53.170;6.728;2023-02-15T04:35:57;38.67;;;19.33;;
54743;SDS011;40639;53.170;6.728;2023-02-15T04:38:23;41.53;;;20.25;;
54743;SDS011;40639;53.170;6.728;2023-02-15T04:40:50;47.33;;;23.20;;
54743;SDS011;40639;53.170;6.728;2023-02-15T04:43:17;98.88;;;26.23;;
54743;SDS011;40639;53.170;6.728;2023-02-15T04:45:47;137.85;;;27.83;;
54743;SDS011;40639;53.170;6.728;2023-02-15T04:48:13;250.57;;;35.13;;
54743;SDS011;40639;53.170;6.728;2023-02-15T04:50:39;225.30;;;33.30;;
54743;SDS011;40639;53.170;6.728;2023-02-15T04:53:05;219.25;;;33.10;;
54743;SDS011;40639;53.170;6.728;2023-02-15T04:55:31;258.80;;;37.03;;
54743;SDS011;40639;53.170;6.728;2023-02-15T04:57:57;271.60;;;37.65;;
54743;SDS011;40639;53.170;6.728;2023-02-15T05:00:23;267.02;;;34.10;;
54743;SDS011;40639;53.170;6.728;2023-02-15T05:02:49;197.65;;;33.70;;
54743;SDS011;40639;53.170;6.728;2023-02-15T05:05:16;231.43;;;35.38;;
54743;SDS011;40639;53.170;6.728;2023-02-15T05:07:42;204.10;;;34.17;;
54743;SDS011;40639;53.170;6.728;2023-02-15T05:10:08;199.15;;;33.45;;
54743;SDS011;40639;53.170;6.728;2023-02-15T05:12:34;235.05;;;36.83;;
54743;SDS011;40639;53.170;6.728;2023-02-15T05:15:00;201.18;;;37.47;;
54743;SDS011;40639;53.170;6.728;2023-02-15T05:17:26;183.00;;;34.67;;
54743;SDS011;40639;53.170;6.728;2023-02-15T05:19:52;117.07;;;33.08;;
54743;SDS011;40639;53.170;6.728;2023-02-15T05:22:18;158.13;;;35.25;;
54743;SDS011;40639;53.170;6.728;2023-02-15T05:24:45;118.85;;;31.65;;
54743;SDS011;40639;53.170;6.728;2023-02-15T05:27:29;138.48;;;33.20;;
54743;SDS011;40639;53.170;6.728;2023-02-15T05:30:14;146.23;;;34.72;;
54743;SDS011;40639;53.170;6.728;2023-02-15T05:32:41;154.45;;;35.55;;
54743;SDS011;40639;53.170;6.728;2023-02-15T05:35:07;116.88;;;31.45;;
54743;SDS011;40639;53.170;6.728;2023-02-15T05:37:33;164.75;;;34.20;;
54743;SDS011;40639;53.170;6.728;2023-02-15T05:39:59;142.75;;;32.50;;
54743;SDS011;40639;53.170;6.728;2023-02-15T05:42:25;118.50;;;31.98;;
54743;SDS011;40639;53.170;6.728;2023-02-15T05:47:17;104.00;;;31.27;;
54743;SDS011;40639;53.170;6.728;2023-02-15T05:49:43;140.85;;;33.28;;
54743;SDS011;40639;53.170;6.728;2023-02-15T05:54:37;172.93;;;35.47;;
54743;SDS011;40639;53.170;6.728;2023-02-15T05:57:03;192.50;;;38.53;;
54743;SDS011;40639;53.170;6.728;2023-02-15T05:59:29;199.68;;;38.63;;
54743;SDS011;40639;53.170;6.728;2023-02-15T06:04:21;188.45;;;36.58;;
54743;SDS011;40639;53.170;6.728;2023-02-15T06:09:13;145.25;;;34.35;;
54743;SDS011;40639;53.170;6.728;2023-02-15T06:11:39;144.00;;;36.80;;
54743;SDS011;40639;53.170;6.728;2023-02-15T06:14:05;203.93;;;39.75;;
54743;SDS011;40639;53.170;6.728;2023-02-15T06:16:31;193.07;;;39.75;;
54743;SDS011;40639;53.170;6.728;2023-02-15T06:18:57;236.65;;;43.15;;
54743;SDS011;40639;53.170;6.728;2023-02-15T06:21:24;229.15;;;41.47;;
54743;SDS011;40639;53.170;6.728;2023-02-15T06:23:50;168.68;;;39.67;;
54743;SDS011;40639;53.170;6.728;2023-02-15T06:28:42;159.88;;;37.35;;
54743;SDS011;40639;53.170;6.728;2023-02-15T06:33:35;123.53;;;35.47;;
54743;SDS011;40639;53.170;6.728;2023-02-15T06:36:01;118.15;;;35.65;;
54743;SDS011;40639;53.170;6.728;2023-02-15T06:38:28;82.15;;;34.60;;
54743;SDS011;40639;53.170;6.728;2023-02-15T06:40:54;85.90;;;34.38;;
54743;SDS011;40639;53.170;6.728;2023-02-15T06:43:20;69.43;;;32.72;;
54743;SDS011;40639;53.170;6.728;2023-02-15T06:45:46;82.85;;;35.10;;
54743;SDS011;40639;53.170;6.728;2023-02-15T06:48:13;100.10;;;35.58;;
54743;SDS011;40639;53.170;6.728;2023-02-15T06:50:39;68.82;;;33.65;;
54743;SDS011;40639;53.170;6.728;2023-02-15T06:53:05;95.65;;;35.15;;
54743;SDS011;40639;53.170;6.728;2023-02-15T06:55:31;87.82;;;33.70;;
54743;SDS011;40639;53.170;6.728;2023-02-15T07:00:23;58.92;;;30.10;;
54743;SDS011;40639;53.170;6.728;2023-02-15T07:02:53;61.00;;;33.45;;
54743;SDS011;40639;53.170;6.728;2023-02-15T07:05:21;60.97;;;33.05;;
54743;SDS011;40639;53.170;6.728;2023-02-15T07:07:47;66.72;;;33.38;;
54743;SDS011;40639;53.170;6.728;2023-02-15T07:10:13;74.90;;;36.13;;
54743;SDS011;40639;53.170;6.728;2023-02-15T07:15:10;68.47;;;33.47;;
54743;SDS011;40639;53.170;6.728;2023-02-15T07:17:36;63.42;;;32.97;;
54743;SDS011;40639;53.170;6.728;2023-02-15T07:20:06;55.55;;;31.83;;
54743;SDS011;40639;53.170;6.728;2023-02-15T07:22:33;52.72;;;30.67;;
54743;SDS011;40639;53.170;6.728;2023-02-15T07:25:01;52.20;;;29.63;;
54743;SDS011;40639;53.170;6.728;2023-02-15T07:27:27;49.25;;;28.63;;
54743;SDS011;40639;53.170;6.728;2023-02-15T07:29:53;53.85;;;30.73;;
54743;SDS011;40639;53.170;6.728;2023-02-15T07:32:19;52.00;;;30.13;;
54743;SDS011;40639;53.170;6.728;2023-02-15T07:37:11;48.60;;;28.45;;
54743;SDS011;40639;53.170;6.728;2023-02-15T07:39:37;47.42;;;27.80;;
54743;SDS011;40639;53.170;6.728;2023-02-15T07:44:29;40.65;;;26.52;;
54743;SDS011;40639;53.170;6.728;2023-02-15T07:46:55;42.33;;;26.90;;
54743;SDS011;40639;53.170;6.728;2023-02-15T07:49:21;43.47;;;27.25;;
54743;SDS011;40639;53.170;6.728;2023-02-15T07:51:48;44.15;;;26.70;;
54743;SDS011;40639;53.170;6.728;2023-02-15T07:54:14;44.92;;;28.23;;
54743;SDS011;40639;53.170;6.728;2023-02-15T07:56:40;45.10;;;26.90;;
54743;SDS011;40639;53.170;6.728;2023-02-15T07:59:06;44.08;;;28.80;;
54743;SDS011;40639;53.170;6.728;2023-02-15T08:01:34;47.78;;;27.92;;
54743;SDS011;40639;53.170;6.728;2023-02-15T08:04:00;46.67;;;28.42;;
54743;SDS011;40639;53.170;6.728;2023-02-15T08:06:28;47.63;;;28.98;;
54743;SDS011;40639;53.170;6.728;2023-02-15T08:08:54;46.67;;;26.67;;
54743;SDS011;40639;53.170;6.728;2023-02-15T08:11:21;44.85;;;26.08;;
54743;SDS011;40639;53.170;6.728;2023-02-15T08:13:55;42.67;;;27.40;;
54743;SDS011;40639;53.170;6.728;2023-02-15T08:16:25;50.22;;;28.42;;
54743;SDS011;40639;53.170;6.728;2023-02-15T08:18:51;41.75;;;26.65;;
54743;SDS011;40639;53.170;6.728;2023-02-15T08:21:18;39.88;;;25.90;;
54743;SDS011;40639;53.170;6.728;2023-02-15T08:23:45;42.95;;;26.85;;
54743;SDS011;40639;53.170;6.728;2023-02-15T08:26:11;42.28;;;26.98;;
54743;SDS011;40639;53.170;6.728;2023-02-15T08:28:37;42.90;;;27.25;;
54743;SDS011;40639;53.170;6.728;2023-02-15T08:31:06;35.95;;;24.02;;
54743;SDS011;40639;53.170;6.728;2023-02-15T08:33:33;37.35;;;22.70;;
54743;SDS011;40639;53.170;6.728;2023-02-15T08:36:03;36.55;;;23.10;;
54743;SDS011;40639;53.170;6.728;2023-02-15T08:38:29;36.30;;;22.67;;
54743;SDS011;40639;53.170;6.728;2023-02-15T08:40:56;35.40;;;21.42;;
54743;SDS011;40639;53.170;6.728;2023-02-15T08:43:22;35.03;;;22.13;;
54743;SDS011;40639;53.170;6.728;2023-02-15T08:45:48;34.97;;;22.50;;
54743;SDS011;40639;53.170;6.728;2023-02-15T08:48:14;36.00;;;21.85;;
54743;SDS011;40639;53.170;6.728;2023-02-15T08:50:40;36.50;;;22.05;;
54743;SDS011;40639;53.170;6.728;2023-02-15T08:55:32;33.67;;;21.75;;
54743;SDS011;40639;53.170;6.728;2023-02-15T08:57:58;35.03;;;20.35;;
54743;SDS011;40639;53.170;6.728;2023-02-15T09:00:24;33.00;;;20.80;;
54743;SDS011;40639;53.170;6.728;2023-02-15T09:02:50;31.63;;;21.15;;
54743;SDS011;40639;53.170;6.728;2023-02-15T09:05:17;33.05;;;20.40;;
54743;SDS011;40639;53.170;6.728;2023-02-15T09:07:43;35.80;;;21.42;;
54743;SDS011;40639;53.170;6.728;2023-02-15T09:10:09;32.10;;;20.35;;
54743;SDS011;40639;53.170;6.728;2023-02-15T09:12:35;32.55;;;19.75;;
54743;SDS011;40639;53.170;6.728;2023-02-15T09:15:01;35.28;;;21.98;;
54743;SDS011;40639;53.170;6.728;2023-02-15T09:17:27;34.63;;;20.83;;
54743;SDS011;40639;53.170;6.728;2023-02-15T09:19:53;28.42;;;18.95;;
54743;SDS011;40639;53.170;6.728;2023-02-15T09:22:19;33.45;;;20.08;;
54743;SDS011;40639;53.170;6.728;2023-02-15T09:24:45;35.95;;;19.85;;
54743;SDS011;40639;53.170;6.728;2023-02-15T09:27:12;29.02;;;19.10;;
54743;SDS011;40639;53.170;6.728;2023-02-15T09:29:38;32.80;;;19.13;;
54743;SDS011;40639;53.170;6.728;2023-02-15T09:32:04;35.70;;;19.95;;
54743;SDS011;40639;53.170;6.728;2023-02-15T09:34:30;33.17;;;19.50;;
54743;SDS011;40639;53.170;6.728;2023-02-15T09:36:56;32.70;;;20.85;;
54743;SDS011;40639;53.170;6.728;2023-02-15T09:39:23;35.10;;;22.48;;
54743;SDS011;40639;53.170;6.728;2023-02-15T09:49:48;36.40;;;21.45;;
54743;SDS011;40639;53.170;6.728;2023-02-15T09:55:15;34.63;;;20.55;;
54743;SDS011;40639;53.170;6.728;2023-02-15T10:00:43;30.27;;;18.85;;
54743;SDS011;40639;53.170;6.728;2023-02-15T10:03:25;31.75;;;18.55;;
54743;SDS011;40639;53.170;6.728;2023-02-15T10:08:40;28.58;;;17.67;;
54743;SDS011;40639;53.170;6.728;2023-02-15T10:11:15;33.25;;;18.63;;
54743;SDS011;40639;53.170;6.728;2023-02-15T10:17:02;27.20;;;17.35;;
54743;SDS011;40639;53.170;6.728;2023-02-15T10:22:37;29.05;;;18.13;;
54743;SDS011;40639;53.170;6.728;2023-02-15T10:27:45;32.78;;;18.27;;
54743;SDS011;40639;53.170;6.728;2023-02-15T10:32:58;32.25;;;19.30;;
54743;SDS011;40639;53.170;6.728;2023-02-15T10:35:29;31.73;;;19.60;;
54743;SDS011;40639;53.170;6.728;2023-02-15T10:38:04;34.63;;;19.55;;
54743;SDS011;40639;53.170;6.728;2023-02-15T10:43:16;28.58;;;18.90;;
54743;SDS011;40639;53.170;6.728;2023-02-15T10:45:55;30.65;;;18.20;;
54743;SDS011;40639;53.170;6.728;2023-02-15T10:51:28;32.78;;;19.95;;
54743;SDS011;40639;53.170;6.728;2023-02-15T10:54:39;33.05;;;19.02;;
54743;SDS011;40639;53.170;6.728;2023-02-15T11:01:49;34.28;;;19.13;;
54743;SDS011;40639;53.170;6.728;2023-02-15T11:06:54;32.88;;;18.95;;
54743;SDS011;40639;53.170;6.728;2023-02-15T11:09:22;30.52;;;18.33;;
54743;SDS011;40639;53.170;6.728;2023-02-15T11:11:50;35.85;;;21.38;;
54743;SDS011;40639;53.170;6.728;2023-02-15T11:14:33;29.30;;;19.20;;
54743;SDS011;40639;53.170;6.728;2023-02-15T11:17:17;34.03;;;19.88;;
54743;SDS011;40639;53.170;6.728;2023-02-15T11:22:14;31.03;;;19.27;;
54743;SDS011;40639;53.170;6.728;2023-02-15T11:24:41;32.53;;;20.33;;
54743;SDS011;40639;53.170;6.728;2023-02-15T11:27:19;34.10;;;19.67;;
54743;SDS011;40639;53.170;6.728;2023-02-15T11:32:14;31.83;;;18.77;;
54743;SDS011;40639;53.170;6.728;2023-02-15T11:34:47;30.92;;;18.58;;
54743;SDS011;40639;53.170;6.728;2023-02-15T11:37:17;32.63;;;18.77;;
54743;SDS011;40639;53.170;6.728;2023-02-15T11:39:44;32.80;;;18.98;;
54743;SDS011;40639;53.170;6.728;2023-02-15T11:42:17;28.67;;;17.77;;
54743;SDS011;40639;53.170;6.728;2023-02-15T11:47:22;31.90;;;18.42;;
54743;SDS011;40639;53.170;6.728;2023-02-15T11:49:48;31.48;;;18.85;;
54743;SDS011;40639;53.170;6.728;2023-02-15T11:52:14;30.00;;;18.05;;
54743;SDS011;40639;53.170;6.728;2023-02-15T11:54:42;33.40;;;19.13;;
54743;SDS011;40639;53.170;6.728;2023-02-15T11:57:18;33.28;;;18.58;;
54743;SDS011;40639;53.170;6.728;2023-02-15T11:59:50;30.17;;;17.65;;
54743;SDS011;40639;53.170;6.728;2023-02-15T12:02:18;30.38;;;17.48;;
54743;SDS011;40639;53.170;6.728;2023-02-15T12:04:56;30.48;;;19.38;;
54743;SDS011;40639;53.170;6.728;2023-02-15T12:07:25;29.67;;;18.05;;
54743;SDS011;40639;53.170;6.728;2023-02-15T12:10:00;30.27;;;18.13;;
54743;SDS011;40639;53.170;6.728;2023-02-15T12:12:33;30.23;;;19.33;;
54743;SDS011;40639;53.170;6.728;2023-02-15T12:15:00;32.63;;;19.33;;
54743;SDS011;40639;53.170;6.728;2023-02-15T12:17:28;28.77;;;18.05;;
54743;SDS011;40639;53.170;6.728;2023-02-15T12:19:56;32.97;;;18.48;;
54743;SDS011;40639;53.170;6.728;2023-02-15T12:22:30;31.73;;;17.30;;
54743;SDS011;40639;53.170;6.728;2023-02-15T12:25:01;30.48;;;16.95;;
54743;SDS011;40639;53.170;6.728;2023-02-15T12:27:31;29.40;;;18.27;;
54743;SDS011;40639;53.170;6.728;2023-02-15T12:32:26;29.90;;;18.63;;
54743;SDS011;40639;53.170;6.728;2023-02-15T12:37:38;29.38;;;16.55;;
54743;SDS011;40639;53.170;6.728;2023-02-15T12:40:21;29.88;;;17.90;;
54743;SDS011;40639;53.170;6.728;2023-02-15T12:42:47;29.45;;;17.75;;
54743;SDS011;40639;53.170;6.728;2023-02-15T12:45:27;30.30;;;18.17;;
54743;SDS011;40639;53.170;6.728;2023-02-15T12:50:35;33.53;;;20.08;;
54743;SDS011;40639;53.170;6.728;2023-02-15T12:53:21;31.98;;;19.23;;
54743;SDS011;40639;53.170;6.728;2023-02-15T12:58:18;33.47;;;19.50;;
54743;SDS011;40639;53.170;6.728;2023-02-15T13:00:45;33.63;;;20.15;;
54743;SDS011;40639;53.170;6.728;2023-02-15T13:03:15;32.55;;;19.92;;
54743;SDS011;40639;53.170;6.728;2023-02-15T13:05:44;32.90;;;20.20;;
54743;SDS011;40639;53.170;6.728;2023-02-15T13:08:17;35.08;;;21.38;;
54743;SDS011;40639;53.170;6.728;2023-02-15T13:13:30;35.78;;;21.85;;
54743;SDS011;40639;53.170;6.728;2023-02-15T13:15:59;35.22;;;22.20;;
54743;SDS011;40639;53.170;6.728;2023-02-15T13:20:53;37.00;;;23.25;;
54743;SDS011;40639;53.170;6.728;2023-02-15T13:23:27;38.50;;;21.50;;
54743;SDS011;40639;53.170;6.728;2023-02-15T13:25:54;37.35;;;22.50;;
54743;SDS011;40639;53.170;6.728;2023-02-15T13:28:22;35.95;;;22.60;;
54743;SDS011;40639;53.170;6.728;2023-02-15T13:30:50;37.13;;;22.38;;
54743;SDS011;40639;53.170;6.728;2023-02-15T13:33:25;36.33;;;21.27;;
54743;SDS011;40639;53.170;6.728;2023-02-15T13:35:59;35.88;;;21.50;;
54743;SDS011;40639;53.170;6.728;2023-02-15T13:40:55;33.60;;;21.77;;
54743;SDS011;40639;53.170;6.728;2023-02-15T13:43:36;35.08;;;21.30;;
54743;SDS011;40639;53.170;6.728;2023-02-15T13:48:39;35.15;;;22.05;;
54743;SDS011;40639;53.170;6.728;2023-02-15T13:51:17;35.65;;;20.83;;
54743;SDS011;40639;53.170;6.728;2023-02-15T13:59:23;33.50;;;20.75;;
54743;SDS011;40639;53.170;6.728;2023-02-15T14:09:51;33.30;;;19.15;;
54743;SDS011;40639;53.170;6.728;2023-02-15T14:15:05;32.28;;;19.30;;
54743;SDS011;40639;53.170;6.728;2023-02-15T14:22:43;34.67;;;19.90;;
54743;SDS011;40639;53.170;6.728;2023-02-15T14:30:12;30.80;;;18.67;;
54743;SDS011;40639;53.170;6.728;2023-02-15T14:32:48;31.02;;;19.20;;
54743;SDS011;40639;53.170;6.728;2023-02-15T14:35:20;30.90;;;18.70;;
54743;SDS011;40639;53.170;6.728;2023-02-15T14:40:36;31.92;;;19.13;;
54743;SDS011;40639;53.170;6.728;2023-02-15T14:45:58;28.95;;;19.20;;
54743;SDS011;40639;53.170;6.728;2023-02-15T14:50:54;29.92;;;18.92;;
54743;SDS011;40639;53.170;6.728;2023-02-15T15:01:28;35.28;;;20.90;;
54743;SDS011;40639;53.170;6.728;2023-02-15T15:03:57;30.27;;;19.42;;
54743;SDS011;40639;53.170;6.728;2023-02-15T15:06:34;31.00;;;19.08;;
54743;SDS011;40639;53.170;6.728;2023-02-15T15:11:45;30.80;;;17.85;;
54743;SDS011;40639;53.170;6.728;2023-02-15T15:16:58;28.80;;;18.42;;
54743;SDS011;40639;53.170;6.728;2023-02-15T15:22:18;32.03;;;19.35;;
54743;SDS011;40639;53.170;6.728;2023-02-15T15:24:46;30.25;;;18.08;;
54743;SDS011;40639;53.170;6.728;2023-02-15T15:29:57;31.27;;;19.30;;
54743;SDS011;40639;53.170;6.728;2023-02-15T15:32:24;31.45;;;19.70;;
54743;SDS011;40639;53.170;6.728;2023-02-15T15:48:02;32.17;;;19.75;;
54743;SDS011;40639;53.170;6.728;2023-02-15T15:50:31;32.17;;;19.05;;
54743;SDS011;40639;53.170;6.728;2023-02-15T15:52:58;34.85;;;20.35;;
54743;SDS011;40639;53.170;6.728;2023-02-15T15:55:27;38.45;;;21.70;;
54743;SDS011;40639;53.170;6.728;2023-02-15T15:57:55;34.53;;;20.58;;
54743;SDS011;40639;53.170;6.728;2023-02-15T16:00:30;32.65;;;20.63;;
54743;SDS011;40639;53.170;6.728;2023-02-15T16:02:58;34.75;;;20.20;;
54743;SDS011;40639;53.170;6.728;2023-02-15T16:05:24;32.17;;;18.60;;
54743;SDS011;40639;53.170;6.728;2023-02-15T16:07:50;33.45;;;20.23;;
54743;SDS011;40639;53.170;6.728;2023-02-15T16:10:27;32.15;;;19.90;;
54743;SDS011;40639;53.170;6.728;2023-02-15T16:12:53;32.50;;;19.67;;
54743;SDS011;40639;53.170;6.728;2023-02-15T16:15:24;32.63;;;20.40;;
54743;SDS011;40639;53.170;6.728;2023-02-15T16:17:52;34.03;;;21.58;;
54743;SDS011;40639;53.170;6.728;2023-02-15T16:20:23;33.58;;;20.65;;
54743;SDS011;40639;53.170;6.728;2023-02-15T16:22:53;36.38;;;21.73;;
54743;SDS011;40639;53.170;6.728;2023-02-15T16:27:56;31.33;;;19.75;;
54743;SDS011;40639;53.170;6.728;2023-02-15T16:30:30;30.15;;;19.35;;
54743;SDS011;40639;53.170;6.728;2023-02-15T16:35:29;34.20;;;20.33;;
54743;SDS011;40639;53.170;6.728;2023-02-15T16:37:55;34.33;;;21.10;;
54743;SDS011;40639;53.170;6.728;2023-02-15T16:42:51;35.35;;;20.38;;
54743;SDS011;40639;53.170;6.728;2023-02-15T16:45:18;33.17;;;20.55;;
54743;SDS011;40639;53.170;6.728;2023-02-15T16:47:46;36.30;;;20.83;;
54743;SDS011;40639;53.170;6.728;2023-02-15T16:50:18;39.72;;;22.08;;
54743;SDS011;40639;53.170;6.728;2023-02-15T16:52:47;34.83;;;22.73;;
54743;SDS011;40639;53.170;6.728;2023-02-15T16:55:20;33.50;;;21.60;;
54743;SDS011;40639;53.170;6.728;2023-02-15T16:57:47;34.55;;;22.35;;
54743;SDS011;40639;53.170;6.728;2023-02-15T17:00:21;36.65;;;22.48;;
54743;SDS011;40639;53.170;6.728;2023-02-15T17:03:02;35.70;;;21.10;;
54743;SDS011;40639;53.170;6.728;2023-02-15T17:05:33;33.75;;;20.90;;
54743;SDS011;40639;53.170;6.728;2023-02-15T17:08:10;35.95;;;22.42;;
54743;SDS011;40639;53.170;6.728;2023-02-15T17:10:39;41.97;;;22.45;;
54743;SDS011;40639;53.170;6.728;2023-02-15T17:13:16;42.88;;;23.42;;
54743;SDS011;40639;53.170;6.728;2023-02-15T17:18:30;38.65;;;22.90;;
54743;SDS011;40639;53.170;6.728;2023-02-15T17:20:58;38.75;;;22.48;;
54743;SDS011;40639;53.170;6.728;2023-02-15T17:23:26;35.30;;;21.98;;
54743;SDS011;40639;53.170;6.728;2023-02-15T17:25:58;36.67;;;20.88;;
54743;SDS011;40639;53.170;6.728;2023-02-15T17:28:27;36.20;;;22.33;;
54743;SDS011;40639;53.170;6.728;2023-02-15T17:30:55;40.55;;;26.55;;
54743;SDS011;40639;53.170;6.728;2023-02-15T17:33:23;39.58;;;25.20;;
54743;SDS011;40639;53.170;6.728;2023-02-15T17:36:11;41.70;;;27.10;;
54743;SDS011;40639;53.170;6.728;2023-02-15T17:38:40;37.63;;;24.30;;
54743;SDS011;40639;53.170;6.728;2023-02-15T17:41:06;40.20;;;23.42;;
54743;SDS011;40639;53.170;6.728;2023-02-15T17:43:33;34.47;;;20.98;;
54743;SDS011;40639;53.170;6.728;2023-02-15T17:46:00;33.78;;;19.38;;
54743;SDS011;40639;53.170;6.728;2023-02-15T17:48:35;36.88;;;21.00;;
54743;SDS011;40639;53.170;6.728;2023-02-15T17:51:06;35.38;;;21.98;;
54743;SDS011;40639;53.170;6.728;2023-02-15T17:53:35;34.88;;;20.60;;
54743;SDS011;40639;53.170;6.728;2023-02-15T17:56:01;34.97;;;20.80;;